createdAt,value
2022-08-01T00:00:58.899Z,23.53
2022-08-01T00:03:26.530Z,23.52
2022-08-01T00:05:54.177Z,23.52
2022-08-01T00:08:21.573Z,23.52
2022-08-01T00:10:49.082Z,23.51
2022-08-01T00:13:16.916Z,23.51
2022-08-01T00:15:53.801Z,23.52
2022-08-01T00:18:22.588Z,23.51
2022-08-01T00:20:50.099Z,23.51
2022-08-01T00:23:17.537Z,23.51
2022-08-01T00:25:45.325Z,23.50
2022-08-01T00:28:14.457Z,23.50
2022-08-01T00:30:41.880Z,23.50
2022-08-01T00:33:09.634Z,23.49
2022-08-01T00:35:37.000Z,23.48
2022-08-01T00:38:04.553Z,23.48
2022-08-01T00:40:32.301Z,23.47
2022-08-01T00:42:59.741Z,23.48
2022-08-01T00:45:27.193Z,23.49
2022-08-01T00:47:55.533Z,23.47
2022-08-01T00:50:24.829Z,23.47
2022-08-01T00:52:52.792Z,23.46
2022-08-01T00:55:21.343Z,23.47
2022-08-01T00:58:05.274Z,23.46
2022-08-01T01:00:52.184Z,23.46
2022-08-01T01:03:23.839Z,23.45
2022-08-01T01:06:35.493Z,23.45
2022-08-01T01:09:24.611Z,23.45
2022-08-01T01:12:08.281Z,23.45
2022-08-01T01:15:11.320Z,23.44
2022-08-01T01:18:04.061Z,23.46
2022-08-01T01:20:36.948Z,23.44
2022-08-01T01:23:35.265Z,23.44
2022-08-01T01:26:15.960Z,23.42
2022-08-01T01:29:04.868Z,23.43
2022-08-01T01:32:07.628Z,23.42
2022-08-01T01:34:38.661Z,23.42
2022-08-01T01:37:11.860Z,23.41
2022-08-01T01:39:45.218Z,23.42
2022-08-01T01:42:17.297Z,23.41
2022-08-01T01:44:47.478Z,23.41
2022-08-01T01:47:17.262Z,23.40
2022-08-01T01:49:47.360Z,23.40
2022-08-01T01:52:18.225Z,23.38
2022-08-01T01:54:49.789Z,23.39
2022-08-01T01:57:19.265Z,23.38
2022-08-01T01:59:50.734Z,23.39
2022-08-01T02:02:20.036Z,23.38
2022-08-01T02:04:49.486Z,23.39
2022-08-01T02:07:23.648Z,23.37
2022-08-01T02:09:53.019Z,23.37
2022-08-01T02:12:22.638Z,23.38
2022-08-01T02:14:54.363Z,23.37
2022-08-01T02:17:25.666Z,23.37
2022-08-01T02:19:54.261Z,23.37
2022-08-01T02:22:33.381Z,23.35
2022-08-01T02:25:03.615Z,23.36
2022-08-01T02:27:43.909Z,23.36
2022-08-01T02:30:14.978Z,23.35
2022-08-01T02:32:48.332Z,23.36
2022-08-01T02:35:24.216Z,23.36
2022-08-01T02:37:53.818Z,23.36
2022-08-01T02:40:22.623Z,23.35
2022-08-01T02:42:53.565Z,23.34
2022-08-01T02:45:25.808Z,23.34
2022-08-01T02:47:59.504Z,23.34
2022-08-01T02:50:29.454Z,23.33
2022-08-01T02:52:59.319Z,23.34
2022-08-01T02:55:27.897Z,23.33
2022-08-01T02:58:00.248Z,23.32
2022-08-01T03:00:31.321Z,23.31
2022-08-01T03:03:00.783Z,23.31
2022-08-01T03:05:28.545Z,23.31
2022-08-01T03:08:02.829Z,23.30
2022-08-01T03:10:33.727Z,23.29
2022-08-01T03:13:02.538Z,23.30
2022-08-01T03:15:33.187Z,23.29
2022-08-01T03:18:02.624Z,23.29
2022-08-01T03:20:33.342Z,23.28
2022-08-01T03:23:04.589Z,23.29
2022-08-01T03:25:34.441Z,23.28
2022-08-01T03:28:05.083Z,23.28
2022-08-01T03:30:34.194Z,23.27
2022-08-01T03:33:02.740Z,23.28
2022-08-01T03:35:34.516Z,23.28
2022-08-01T03:38:19.489Z,23.27
2022-08-01T03:41:09.841Z,23.28
2022-08-01T03:43:42.522Z,23.28
2022-08-01T03:46:18.598Z,23.28
2022-08-01T03:48:51.771Z,23.28
2022-08-01T03:51:21.773Z,23.27
2022-08-01T03:53:52.384Z,23.28
2022-08-01T03:56:22.469Z,23.28
2022-08-01T03:58:51.401Z,23.28
2022-08-01T04:01:20.002Z,23.30
2022-08-01T04:03:47.909Z,23.30
2022-08-01T04:06:16.533Z,23.29
2022-08-01T04:08:56.206Z,23.31
2022-08-01T04:11:28.605Z,23.32
2022-08-01T04:13:56.846Z,23.33
2022-08-01T04:16:25.671Z,23.33
2022-08-01T04:18:53.244Z,23.35
2022-08-01T04:21:24.572Z,23.35
2022-08-01T04:23:54.130Z,23.35
2022-08-01T04:26:23.000Z,23.36
2022-08-01T04:28:52.908Z,23.36
2022-08-01T04:31:20.584Z,23.38
2022-08-01T04:33:53.022Z,23.39
2022-08-01T04:36:24.819Z,23.41
2022-08-01T04:38:57.101Z,23.41
2022-08-01T04:41:25.834Z,23.42
2022-08-01T04:43:55.273Z,23.44
2022-08-01T04:46:24.165Z,23.45
2022-08-01T04:48:52.062Z,23.47
2022-08-01T04:51:22.882Z,23.48
2022-08-01T04:53:52.020Z,23.49
2022-08-01T04:56:21.653Z,23.48
2022-08-01T04:58:49.257Z,23.49
2022-08-01T05:01:16.898Z,23.49
2022-08-01T05:03:45.017Z,23.49
2022-08-01T05:06:12.400Z,23.50
2022-08-01T05:08:40.297Z,23.51
2022-08-01T05:11:07.798Z,23.52
2022-08-01T05:13:35.228Z,23.53
2022-08-01T05:16:04.575Z,23.54
2022-08-01T05:18:32.040Z,23.58
2022-08-01T05:21:00.211Z,23.64
2022-08-01T05:23:41.973Z,23.70
2022-08-01T05:26:14.823Z,23.76
2022-08-01T05:28:43.401Z,23.83
2022-08-01T05:31:11.004Z,23.87
2022-08-01T05:33:38.721Z,23.91
2022-08-01T05:36:06.580Z,23.94
2022-08-01T05:38:34.001Z,23.95
2022-08-01T05:41:01.538Z,23.95
2022-08-01T05:43:29.414Z,23.94
2022-08-01T05:45:57.079Z,23.95
2022-08-01T05:48:25.393Z,23.95
2022-08-01T05:50:58.184Z,23.94
2022-08-01T05:53:26.876Z,23.93
2022-08-01T05:55:55.976Z,23.92
2022-08-01T05:58:23.620Z,23.91
2022-08-01T06:00:50.957Z,23.89
2022-08-01T06:03:19.394Z,23.89
2022-08-01T06:05:46.852Z,23.89
2022-08-01T06:08:14.496Z,23.88
2022-08-01T06:10:42.077Z,23.87
2022-08-01T06:13:09.649Z,23.86
2022-08-01T06:15:37.366Z,23.85
2022-08-01T06:18:05.912Z,23.85
2022-08-01T06:20:33.330Z,23.86
2022-08-01T06:23:01.017Z,23.86
2022-08-01T06:25:30.504Z,23.86
2022-08-01T06:27:58.026Z,23.86
2022-08-01T06:30:25.705Z,23.86
2022-08-01T06:32:53.756Z,23.87
2022-08-01T06:35:21.254Z,23.86
2022-08-01T06:37:49.940Z,23.86
2022-08-01T06:40:18.817Z,23.87
2022-08-01T06:42:47.523Z,23.89
2022-08-01T06:45:15.883Z,23.89
2022-08-01T06:47:45.135Z,23.89
2022-08-01T06:50:18.743Z,23.91
2022-08-01T06:52:46.497Z,23.91
2022-08-01T06:55:14.002Z,23.92
2022-08-01T06:57:53.825Z,23.94
2022-08-01T07:00:23.771Z,23.94
2022-08-01T07:02:52.854Z,23.95
2022-08-01T07:05:20.853Z,23.96
2022-08-01T07:07:49.782Z,23.97
2022-08-01T07:10:17.595Z,23.97
2022-08-01T07:12:45.171Z,23.97
2022-08-01T07:15:13.009Z,23.99
2022-08-01T07:17:41.704Z,23.98
2022-08-01T07:20:11.880Z,24.00
2022-08-01T07:22:41.854Z,24.01
2022-08-01T07:25:10.731Z,24.02
2022-08-01T07:27:38.506Z,24.02
2022-08-01T07:30:06.964Z,24.05
2022-08-01T07:32:35.793Z,24.04
2022-08-01T07:35:04.330Z,24.07
2022-08-01T07:37:45.267Z,24.06
2022-08-01T07:40:18.630Z,24.07
2022-08-01T07:42:47.451Z,24.09
2022-08-01T07:45:16.061Z,24.07
2022-08-01T07:47:44.018Z,24.07
2022-08-01T07:50:13.463Z,24.05
2022-08-01T07:52:40.861Z,24.05
2022-08-01T07:55:09.210Z,24.03
2022-08-01T07:57:37.033Z,24.04
2022-08-01T08:00:07.316Z,24.04
2022-08-01T08:02:34.820Z,24.04
2022-08-01T08:05:03.084Z,24.07
2022-08-01T08:07:30.556Z,24.07
2022-08-01T08:09:58.000Z,24.10
2022-08-01T08:12:28.948Z,24.13
2022-08-01T08:14:59.877Z,24.10
2022-08-01T08:17:28.577Z,24.11
2022-08-01T08:19:56.090Z,24.12
2022-08-01T08:22:23.518Z,24.15
2022-08-01T08:24:51.181Z,24.18
2022-08-01T08:27:19.143Z,24.19
2022-08-01T08:29:46.909Z,24.17
2022-08-01T08:32:14.684Z,24.19
2022-08-01T08:34:42.510Z,24.20
2022-08-01T08:37:10.748Z,24.16
2022-08-01T08:39:42.172Z,24.17
2022-08-01T08:42:11.720Z,24.17
2022-08-01T08:44:43.540Z,24.18
2022-08-01T08:47:19.403Z,24.17
2022-08-01T08:49:50.508Z,24.18
2022-08-01T08:52:20.863Z,24.19
2022-08-01T08:54:49.650Z,24.20
2022-08-01T08:57:19.521Z,24.19
2022-08-01T08:59:48.320Z,24.19
2022-08-01T09:02:15.714Z,24.19
2022-08-01T09:04:43.809Z,24.19
2022-08-01T09:07:12.695Z,24.19
2022-08-01T09:09:41.895Z,24.19
2022-08-01T09:12:10.315Z,24.19
2022-08-01T09:14:46.742Z,24.19
2022-08-01T09:17:14.503Z,24.20
2022-08-01T09:19:52.599Z,24.20
2022-08-01T09:22:24.696Z,24.21
2022-08-01T09:25:21.626Z,24.19
2022-08-01T09:28:07.643Z,24.21
2022-08-01T09:30:40.213Z,24.20
2022-08-01T09:33:17.969Z,24.20
2022-08-01T09:35:57.621Z,24.21
2022-08-01T09:38:30.246Z,24.21
2022-08-01T09:41:01.925Z,24.23
2022-08-01T09:43:32.210Z,24.22
2022-08-01T09:46:01.141Z,24.22
2022-08-01T09:48:29.530Z,24.19
2022-08-01T09:51:03.839Z,24.19
2022-08-01T09:53:51.297Z,24.21
2022-08-01T09:56:22.525Z,24.21
2022-08-01T09:58:59.251Z,24.19
2022-08-01T10:01:38.500Z,24.16
2022-08-01T10:04:21.222Z,24.15
2022-08-01T10:06:55.290Z,24.18
2022-08-01T10:09:35.687Z,24.19
2022-08-01T10:12:15.724Z,24.21
2022-08-01T10:14:50.555Z,24.22
2022-08-01T10:17:20.782Z,24.23
2022-08-01T10:19:51.506Z,24.25
2022-08-01T10:22:21.069Z,24.26
2022-08-01T10:24:51.088Z,24.24
2022-08-01T10:27:24.715Z,24.23
2022-08-01T10:30:19.900Z,24.21
2022-08-01T10:32:55.006Z,24.22
2022-08-01T10:35:45.692Z,24.27
2022-08-01T10:38:13.546Z,24.28
2022-08-01T10:40:43.369Z,24.29
2022-08-01T10:43:21.842Z,24.31
2022-08-01T10:45:51.126Z,24.30
2022-08-01T10:48:25.534Z,24.28
2022-08-01T10:51:01.384Z,24.27
2022-08-01T10:53:31.022Z,24.27
2022-08-01T10:56:03.218Z,24.27
2022-08-01T10:58:42.834Z,24.30
2022-08-01T11:01:25.800Z,24.28
2022-08-01T11:04:03.029Z,24.27
2022-08-01T11:06:34.816Z,24.29
2022-08-01T11:09:07.010Z,24.31
2022-08-01T11:11:59.149Z,24.34
2022-08-01T11:14:46.744Z,24.37
2022-08-01T11:17:37.766Z,24.38
2022-08-01T11:20:15.253Z,24.39
2022-08-01T11:23:02.375Z,24.40
2022-08-01T11:26:03.611Z,24.42
2022-08-01T11:28:35.785Z,24.43
2022-08-01T11:31:11.668Z,24.44
2022-08-01T11:33:46.694Z,24.44
2022-08-01T11:36:16.532Z,24.46
2022-08-01T11:39:13.450Z,24.46
2022-08-01T11:41:44.245Z,24.46
2022-08-01T11:44:15.647Z,24.43
2022-08-01T11:46:49.759Z,24.43
2022-08-01T11:49:38.729Z,24.44
2022-08-01T11:52:25.845Z,24.46
2022-08-01T11:54:56.830Z,24.46
2022-08-01T11:57:33.897Z,24.45
2022-08-01T12:00:15.119Z,24.48
2022-08-01T12:02:46.303Z,24.50
2022-08-01T12:05:18.396Z,24.50
2022-08-01T12:07:50.181Z,24.49
2022-08-01T12:10:20.676Z,24.48
2022-08-01T12:12:51.207Z,24.50
2022-08-01T12:15:20.608Z,24.52
2022-08-01T12:17:58.392Z,24.55
2022-08-01T12:20:30.931Z,24.56
2022-08-01T12:23:06.704Z,24.59
2022-08-01T12:25:35.521Z,24.61
2022-08-01T12:28:07.109Z,24.62
2022-08-01T12:30:36.486Z,24.60
2022-08-01T12:33:07.950Z,24.56
2022-08-01T12:35:39.173Z,24.56
2022-08-01T12:38:14.703Z,24.56
2022-08-01T12:40:45.471Z,24.56
2022-08-01T12:43:28.185Z,24.58
2022-08-01T12:46:00.272Z,24.60
2022-08-01T12:48:31.986Z,24.60
2022-08-01T12:51:02.133Z,24.60
2022-08-01T12:53:40.431Z,24.59
2022-08-01T12:56:13.440Z,24.58
2022-08-01T12:58:41.192Z,24.58
2022-08-01T13:01:12.246Z,24.60
2022-08-01T13:03:40.936Z,24.61
2022-08-01T13:06:17.604Z,24.61
2022-08-01T13:08:46.359Z,24.61
2022-08-01T13:11:16.516Z,24.62
2022-08-01T13:13:48.698Z,24.63
2022-08-01T13:16:31.162Z,24.67
2022-08-01T13:19:09.455Z,24.72
2022-08-01T13:21:53.822Z,24.72
2022-08-01T13:24:26.933Z,24.74
2022-08-01T13:27:01.050Z,24.77
2022-08-01T13:29:42.321Z,24.79
2022-08-01T13:32:28.658Z,24.81
2022-08-01T13:35:09.718Z,24.81
2022-08-01T13:37:39.326Z,24.76
2022-08-01T13:40:08.430Z,24.71
2022-08-01T13:42:36.506Z,24.74
2022-08-01T13:45:14.015Z,24.77
2022-08-01T13:48:04.051Z,24.77
2022-08-01T13:50:33.778Z,24.79
2022-08-01T13:53:01.371Z,24.81
2022-08-01T13:55:34.494Z,24.82
2022-08-01T13:58:03.756Z,24.79
2022-08-01T14:00:31.550Z,24.86
2022-08-01T14:02:59.621Z,24.88
2022-08-01T14:05:27.631Z,24.91
2022-08-01T14:07:56.754Z,24.91
2022-08-01T14:10:25.089Z,24.93
2022-08-01T14:12:52.892Z,24.93
2022-08-01T14:15:37.651Z,24.93
2022-08-01T14:18:09.254Z,24.94
2022-08-01T14:20:38.629Z,24.92
2022-08-01T14:23:08.998Z,24.90
2022-08-01T14:26:02.700Z,24.88
2022-08-01T14:28:28.920Z,24.86
2022-08-01T14:30:58.293Z,24.86
2022-08-01T14:33:26.396Z,24.83
2022-08-01T14:36:06.336Z,24.83
2022-08-01T14:38:41.775Z,24.81
2022-08-01T14:41:09.237Z,24.80
2022-08-01T14:43:36.622Z,24.78
2022-08-01T14:46:05.426Z,24.77
2022-08-01T14:48:32.909Z,24.75
2022-08-01T14:51:03.561Z,24.74
2022-08-01T14:53:35.708Z,24.76
2022-08-01T14:56:04.540Z,24.76
2022-08-01T14:58:32.657Z,24.78
2022-08-01T15:01:00.435Z,24.80
2022-08-01T15:03:27.859Z,24.83
2022-08-01T15:05:55.524Z,24.87
2022-08-01T15:08:22.981Z,24.89
2022-08-01T15:10:50.460Z,24.89
2022-08-01T15:13:18.176Z,24.91
2022-08-01T15:15:45.796Z,24.90
2022-08-01T15:18:13.294Z,24.91
2022-08-01T15:20:41.678Z,24.92
2022-08-01T15:23:10.350Z,24.95
2022-08-01T15:25:41.085Z,24.96
2022-08-01T15:28:13.215Z,24.97
2022-08-01T15:30:41.459Z,24.96
2022-08-01T15:33:08.969Z,24.94
2022-08-01T15:35:36.664Z,24.94
2022-08-01T15:38:04.245Z,24.94
2022-08-01T15:40:35.320Z,24.95
2022-08-01T15:43:03.564Z,24.94
2022-08-01T15:45:47.419Z,24.95
2022-08-01T15:48:17.014Z,24.94
2022-08-01T15:50:44.464Z,24.94
2022-08-01T15:53:12.409Z,24.96
2022-08-01T15:55:40.294Z,24.96
2022-08-01T15:58:08.342Z,24.95
2022-08-01T16:00:40.967Z,24.94
2022-08-01T16:03:10.134Z,24.95
2022-08-01T16:05:43.122Z,24.94
2022-08-01T16:08:13.089Z,24.95
2022-08-01T16:10:41.476Z,24.94
2022-08-01T16:13:09.688Z,24.93
2022-08-01T16:15:41.924Z,24.95
2022-08-01T16:18:12.987Z,24.95
2022-08-01T16:20:45.571Z,24.93
2022-08-01T16:23:17.114Z,24.94
2022-08-01T16:25:45.121Z,24.93
2022-08-01T16:28:13.965Z,24.93
2022-08-01T16:30:50.875Z,24.93
2022-08-01T16:33:43.447Z,24.94
2022-08-01T16:36:17.858Z,24.93
2022-08-01T16:38:46.072Z,24.93
2022-08-01T16:41:19.489Z,24.93
2022-08-01T16:43:53.871Z,24.93
2022-08-01T16:46:23.715Z,24.94
2022-08-01T16:48:51.529Z,24.94
2022-08-01T16:51:20.434Z,24.92
2022-08-01T16:53:48.150Z,24.92
2022-08-01T16:56:15.929Z,24.94
2022-08-01T16:58:43.423Z,24.96
2022-08-01T17:01:59.166Z,24.98
2022-08-01T17:04:01.590Z,25.00
2022-08-01T17:06:30.608Z,25.02
2022-08-01T17:08:58.760Z,25.02
2022-08-01T17:11:26.663Z,25.04
2022-08-01T17:13:54.119Z,25.03
2022-08-01T17:16:22.068Z,25.03
2022-08-01T17:18:49.759Z,25.02
2022-08-01T17:21:18.070Z,25.02
2022-08-01T17:23:45.546Z,25.01
2022-08-01T17:26:13.280Z,25.01
2022-08-01T17:28:40.721Z,25.02
2022-08-01T17:31:10.709Z,25.02
2022-08-01T17:33:45.530Z,25.02
2022-08-01T17:36:15.205Z,25.03
2022-08-01T17:38:43.046Z,25.03
2022-08-01T17:41:10.757Z,25.03
2022-08-01T17:43:38.316Z,25.04
2022-08-01T17:46:05.998Z,25.04
2022-08-01T17:48:33.445Z,25.03
2022-08-01T17:51:00.921Z,25.02
2022-08-01T17:53:28.740Z,25.01
2022-08-01T17:55:58.583Z,25.01
2022-08-01T17:58:32.984Z,25.02
2022-08-01T18:01:17.289Z,25.01
2022-08-01T18:03:45.383Z,25.00
2022-08-01T18:06:15.561Z,24.99
2022-08-01T18:08:46.698Z,24.99
2022-08-01T18:11:18.049Z,24.98
2022-08-01T18:13:45.734Z,24.99
2022-08-01T18:16:13.651Z,24.98
2022-08-01T18:18:42.476Z,24.98
2022-08-01T18:21:12.508Z,24.95
2022-08-01T18:23:40.665Z,24.95
2022-08-01T18:26:20.648Z,24.96
2022-08-01T18:28:48.259Z,24.96
2022-08-01T18:31:18.500Z,24.95
2022-08-01T18:33:46.512Z,24.95
2022-08-01T18:36:31.818Z,24.94
2022-08-01T18:39:10.366Z,24.94
2022-08-01T18:41:38.929Z,24.94
2022-08-01T18:44:08.756Z,24.93
2022-08-01T18:46:38.491Z,24.93
2022-08-01T18:49:09.868Z,24.93
2022-08-01T18:51:43.923Z,24.93
2022-08-01T18:54:16.420Z,24.92
2022-08-01T18:56:45.198Z,24.91
2022-08-01T18:59:14.065Z,24.93
2022-08-01T19:01:43.084Z,24.91
2022-08-01T19:04:11.148Z,24.89
2022-08-01T19:06:38.952Z,24.90
2022-08-01T19:09:11.611Z,24.90
2022-08-01T19:11:39.765Z,24.90
2022-08-01T19:14:07.416Z,24.90
2022-08-01T19:16:35.552Z,24.90
2022-08-01T19:19:06.922Z,24.90
2022-08-01T19:21:35.291Z,24.90
2022-08-01T19:24:22.750Z,24.90
2022-08-01T19:27:08.423Z,24.88
2022-08-01T19:29:39.193Z,24.89
2022-08-01T19:32:10.219Z,24.88
2022-08-01T19:35:08.508Z,24.86
2022-08-01T19:37:35.962Z,24.87
2022-08-01T19:40:04.535Z,24.84
2022-08-01T19:42:32.192Z,24.85
2022-08-01T19:45:02.669Z,24.86
2022-08-01T19:47:51.898Z,24.84
2022-08-01T19:50:19.268Z,24.84
2022-08-01T19:52:51.941Z,24.83
2022-08-01T19:55:19.680Z,24.84
2022-08-01T19:57:59.229Z,24.84
2022-08-01T20:00:42.304Z,24.83
2022-08-01T20:03:10.467Z,24.85
2022-08-01T20:05:39.006Z,24.84
2022-08-01T20:08:07.607Z,24.84
2022-08-01T20:10:38.095Z,24.84
2022-08-01T20:13:09.595Z,24.82
2022-08-01T20:15:39.034Z,24.81
2022-08-01T20:18:07.294Z,24.80
2022-08-01T20:20:36.719Z,24.79
2022-08-01T20:23:09.399Z,24.77
2022-08-01T20:25:40.246Z,24.75
2022-08-01T20:28:12.262Z,24.76
2022-08-01T20:30:41.080Z,24.74
2022-08-01T20:33:10.331Z,24.75
2022-08-01T20:35:52.188Z,24.73
2022-08-01T20:38:24.313Z,24.72
2022-08-01T20:40:53.491Z,24.70
2022-08-01T20:43:22.169Z,24.71
2022-08-01T20:45:51.342Z,24.74
2022-08-01T20:48:20.304Z,24.72
2022-08-01T20:51:08.321Z,24.70
2022-08-01T20:53:40.887Z,24.67
2022-08-01T20:56:25.140Z,24.67
2022-08-01T20:59:03.410Z,24.66
2022-08-01T21:01:35.434Z,24.67
2022-08-01T21:04:08.802Z,24.66
2022-08-01T21:06:41.388Z,24.65
2022-08-01T21:09:13.383Z,24.62
2022-08-01T21:12:02.393Z,24.59
2022-08-01T21:14:45.572Z,24.58
2022-08-01T21:17:19.526Z,24.55
2022-08-01T21:19:54.916Z,24.53
2022-08-01T21:22:36.012Z,24.50
2022-08-01T21:25:07.674Z,24.46
2022-08-01T21:27:36.159Z,24.44
2022-08-01T21:30:07.934Z,24.33
2022-08-01T21:32:36.652Z,24.22
2022-08-01T21:35:07.196Z,24.16
2022-08-01T21:37:44.834Z,24.12
2022-08-01T21:40:24.346Z,24.11
2022-08-01T21:42:53.687Z,24.08
2022-08-01T21:45:25.621Z,24.05
2022-08-01T21:47:54.503Z,24.04
2022-08-01T21:50:22.627Z,24.03
2022-08-01T21:53:32.442Z,24.04
2022-08-01T21:56:13.568Z,24.05
2022-08-01T21:58:56.770Z,24.08
2022-08-01T22:01:52.558Z,24.12
2022-08-01T22:04:41.714Z,24.17
2022-08-01T22:07:12.632Z,24.21
2022-08-01T22:09:45.501Z,24.25
2022-08-01T22:12:17.944Z,24.27
2022-08-01T22:14:48.849Z,24.28
2022-08-01T22:17:22.842Z,24.27
2022-08-01T22:19:54.038Z,24.26
2022-08-01T22:22:50.187Z,24.25
2022-08-01T22:25:11.909Z,24.23
2022-08-01T22:28:06.201Z,24.26
2022-08-01T22:30:29.442Z,24.27
2022-08-01T22:33:07.957Z,24.25
2022-08-01T22:35:48.326Z,24.21
2022-08-01T22:38:20.797Z,24.16
2022-08-01T22:40:50.793Z,24.16
2022-08-01T22:43:25.500Z,24.14
2022-08-01T22:46:09.857Z,24.14
2022-08-01T22:48:51.103Z,24.12
2022-08-01T22:51:43.784Z,24.09
2022-08-01T22:54:35.977Z,24.08
2022-08-01T22:57:20.147Z,24.08
2022-08-01T23:00:08.870Z,24.06
2022-08-01T23:02:58.536Z,24.07
2022-08-01T23:05:28.453Z,24.09
2022-08-01T23:07:57.406Z,24.09
2022-08-01T23:10:26.779Z,24.08
2022-08-01T23:12:55.815Z,24.08
2022-08-01T23:15:24.155Z,24.09
2022-08-01T23:17:52.015Z,24.08
2022-08-01T23:20:19.548Z,24.02
2022-08-01T23:22:48.413Z,24.04
2022-08-01T23:25:18.209Z,24.07
2022-08-01T23:27:52.058Z,24.08
2022-08-01T23:30:34.966Z,24.07
2022-08-01T23:33:03.485Z,24.06
2022-08-01T23:35:31.575Z,24.06
2022-08-01T23:38:03.316Z,24.01
2022-08-01T23:40:32.475Z,23.96
2022-08-01T23:43:01.889Z,23.95
2022-08-01T23:46:02.823Z,23.92
2022-08-01T23:48:17.509Z,23.91
2022-08-01T23:50:45.766Z,23.93
2022-08-01T23:53:13.314Z,23.86
2022-08-01T23:55:40.805Z,23.88
2022-08-01T23:58:11.871Z,23.91
